Time;durP1;ratioP1;P1;durP2;ratioP2;P2;SDS_P1;SDS_P2;PMS_P1;PMS_P2;Temp;Humidity;BMP_temperature;BMP_pressure;BME280_temperature;BME280_humidity;BME280_pressure;Samples;Min_cycle;Max_cycle;Signal;HPM_P1;HPM_P2
2023/08/27 00:01:39;;;;;;;2.25;1.80;;;;;;;15.14;100.00;100139.75;5934890;29;20088;-92
2023/08/27 00:04:42;;;;;;;1.52;1.42;;;;;;;15.21;100.00;100139.94;5942623;29;20055;-92
2023/08/27 00:07:44;;;;;;;9.15;2.08;;;;;;;15.29;100.00;100135.53;5960397;29;20043;-91
2023/08/27 00:10:46;;;;;;;2.97;1.60;;;;;;;15.34;100.00;100124.63;5950727;29;20046;-92
2023/08/27 00:13:48;;;;;;;1.85;1.42;;;;;;;15.44;100.00;100124.47;5955077;29;20043;-92
2023/08/27 00:16:50;;;;;;;2.83;1.42;;;;;;;15.49;100.00;100130.00;5947523;29;20190;-92
2023/08/27 00:19:52;;;;;;;2.58;1.85;;;;;;;15.60;100.00;100139.28;5974788;29;20433;-92
2023/08/27 00:22:54;;;;;;;1.85;1.42;;;;;;;15.67;100.00;100135.06;5960888;29;20058;-92
2023/08/27 00:25:57;;;;;;;1.63;1.52;;;;;;;15.73;100.00;100124.00;5960392;29;20050;-92
2023/08/27 00:28:59;;;;;;;3.70;1.92;;;;;;;15.77;100.00;100116.66;5960139;29;20058;-93
2023/08/27 00:32:01;;;;;;;3.35;1.63;;;;;;;15.80;100.00;100104.09;5958126;29;20543;-92
2023/08/27 00:35:16;;;;;;;2.70;1.70;;;;;;;15.73;100.00;100117.97;5960476;29;20647;-92
2023/08/27 00:38:18;;;;;;;2.78;1.90;;;;;;;15.63;100.00;100118.94;5959706;29;20585;-93
2023/08/27 00:41:20;;;;;;;3.80;1.70;;;;;;;15.56;100.00;100122.34;5957809;29;20051;-93
2023/08/27 00:44:23;;;;;;;2.08;1.88;;;;;;;15.51;100.00;100133.28;5954400;29;20138;-92
2023/08/27 00:47:25;;;;;;;4.05;1.70;;;;;;;15.49;100.00;100111.75;5949896;29;20086;-92
2023/08/27 00:50:27;;;;;;;1.75;1.65;;;;;;;15.50;100.00;100095.94;5954268;29;20058;-92
2023/08/27 00:53:32;;;;;;;2.58;1.60;;;;;;;15.46;100.00;100099.84;5959249;29;20051;-92
2023/08/27 00:56:34;;;;;;;3.75;1.70;;;;;;;15.37;100.00;100102.63;5923246;29;20052;-92
2023/08/27 00:59:37;;;;;;;3.95;2.05;;;;;;;15.34;100.00;100093.31;5957966;29;20083;-93
2023/08/27 01:02:42;;;;;;;1.75;1.55;;;;;;;15.38;100.00;100109.44;5958568;29;20047;-92
2023/08/27 01:05:45;;;;;;;4.25;2.05;;;;;;;15.33;100.00;100114.34;5967428;29;20051;-92
2023/08/27 01:09:03;;;;;;;4.15;1.73;;;;;;;15.29;100.00;100111.25;5960415;29;20062;-92
2023/08/27 01:12:20;;;;;;;2.30;1.70;;;;;;;15.28;100.00;100110.44;5959554;29;20054;-92
2023/08/27 01:15:24;;;;;;;3.92;1.60;;;;;;;15.28;100.00;100096.59;5953470;29;20137;-92
2023/08/27 01:18:28;;;;;;;2.00;1.70;;;;;;;15.25;100.00;100063.00;5958288;29;20095;-93
2023/08/27 01:21:30;;;;;;;2.45;1.70;;;;;;;15.24;100.00;100051.75;5952642;29;20137;-92
2023/08/27 01:24:32;;;;;;;2.05;1.70;;;;;;;15.18;100.00;100044.59;5958847;29;20046;-92
2023/08/27 01:27:43;;;;;;;3.45;1.50;;;;;;;15.16;100.00;100041.34;5952835;29;20039;-93
2023/08/27 01:31:06;;;;;;;2.67;1.77;;;;;;;15.06;100.00;100028.47;5959070;29;20047;-93
2023/08/27 01:34:12;;;;;;;2.63;1.60;;;;;;;15.03;100.00;100033.19;5959536;29;20046;-94
2023/08/27 01:37:14;;;;;;;1.63;1.52;;;;;;;14.99;100.00;100026.69;5966590;29;20824;-93
2023/08/27 01:40:17;;;;;;;2.63;1.67;;;;;;;14.93;100.00;100030.75;5958008;29;20123;-92
2023/08/27 01:43:19;;;;;;;1.70;1.50;;;;;;;14.86;100.00;100030.56;5958340;29;20059;-92
2023/08/27 01:46:21;;;;;;;2.05;1.77;;;;;;;14.80;100.00;100044.22;5959090;29;20080;-92
2023/08/27 01:49:23;;;;;;;2.50;1.60;;;;;;;14.74;100.00;100055.31;5961191;29;20054;-92
2023/08/27 01:52:25;;;;;;;3.55;1.75;;;;;;;14.66;100.00;100057.91;5963216;29;20050;-92
2023/08/27 01:55:27;;;;;;;2.30;1.60;;;;;;;14.57;100.00;100051.84;5943074;29;20058;-92
2023/08/27 01:58:29;;;;;;;4.43;1.70;;;;;;;14.55;100.00;100051.19;5942618;29;20050;-93
2023/08/27 02:01:31;;;;;;;2.83;1.63;;;;;;;14.51;100.00;100039.44;5945556;29;20082;-94
2023/08/27 02:04:34;;;;;;;2.92;2.22;;;;;;;14.51;100.00;100038.59;5934565;29;20055;-92
2023/08/27 02:07:37;;;;;;;1.95;1.55;;;;;;;14.50;100.00;100052.59;5958564;29;20158;-93
2023/08/27 02:10:40;;;;;;;2.20;1.77;;;;;;;14.49;100.00;100050.97;5956842;29;20482;-92
2023/08/27 02:13:41;;;;;;;2.28;1.92;;;;;;;14.51;100.00;100056.81;5957305;29;20054;-93
2023/08/27 02:16:43;;;;;;;2.63;1.90;;;;;;;14.53;100.00;100057.50;5942786;29;20053;-93
2023/08/27 02:19:46;;;;;;;2.88;1.83;;;;;;;14.55;100.00;100059.00;5954836;29;20062;-92
2023/08/27 02:22:55;;;;;;;3.30;2.00;;;;;;;14.52;100.00;100048.06;5947747;29;20080;-92
2023/08/27 02:25:57;;;;;;;2.25;1.80;;;;;;;14.52;100.00;100061.06;5952720;29;20620;-92
2023/08/27 02:28:59;;;;;;;2.25;1.77;;;;;;;14.49;100.00;100062.22;5932717;29;20046;-92
2023/08/27 02:32:01;;;;;;;2.03;1.55;;;;;;;14.47;100.00;100056.34;5943129;29;20047;-92
2023/08/27 02:35:03;;;;;;;5.47;2.45;;;;;;;14.49;100.00;100057.00;5962229;29;20050;-91
2023/08/27 02:38:05;;;;;;;3.42;1.90;;;;;;;14.49;100.00;100054.41;5962039;29;20054;-91
2023/08/27 02:41:07;;;;;;;2.15;1.80;;;;;;;14.50;100.00;100055.22;5956962;29;20050;-92
2023/08/27 02:44:09;;;;;;;2.22;1.65;;;;;;;14.49;100.00;100056.19;5963223;29;20520;-92
2023/08/27 02:47:12;;;;;;;3.60;1.90;;;;;;;14.49;100.00;100053.59;5958463;29;20505;-91
2023/08/27 02:50:13;;;;;;;3.80;1.85;;;;;;;14.46;100.00;100044.31;5941953;29;20061;-93
2023/08/27 02:53:15;;;;;;;2.42;1.50;;;;;;;14.47;100.00;100037.31;5961020;29;20126;-93
2023/08/27 02:56:18;;;;;;;1.98;1.80;;;;;;;14.44;100.00;100010.59;5936905;29;20055;-91
2023/08/27 02:59:20;;;;;;;3.58;1.80;;;;;;;14.44;100.00;100008.00;5979651;29;20055;-92
2023/08/27 03:02:22;;;;;;;2.22;1.90;;;;;;;14.43;100.00;100000.31;5946701;29;20059;-92
2023/08/27 03:05:25;;;;;;;4.07;1.88;;;;;;;14.44;100.00;99999.38;5951051;29;20066;-92
2023/08/27 03:08:28;;;;;;;4.43;1.95;;;;;;;14.42;100.00;99996.09;5958451;29;20418;-92
2023/08/27 03:11:31;;;;;;;2.38;1.70;;;;;;;14.42;100.00;100007.31;5960108;29;20047;-92
2023/08/27 03:14:33;;;;;;;3.20;1.60;;;;;;;14.40;100.00;100006.66;5948623;29;20051;-92
2023/08/27 03:17:35;;;;;;;2.75;1.98;;;;;;;14.41;100.00;100005.72;5938210;29;20047;-91
2023/08/27 03:20:37;;;;;;;2.88;2.00;;;;;;;14.41;100.00;100010.91;5960475;29;20078;-91
2023/08/27 03:23:38;;;;;;;2.70;1.90;;;;;;;14.41;100.00;100017.91;5949319;29;20058;-92
2023/08/27 03:26:40;;;;;;;3.10;1.70;;;;;;;14.43;100.00;100015.94;5945822;29;20047;-91
2023/08/27 03:29:44;;;;;;;1.75;1.50;;;;;;;14.46;100.00;100018.25;5953495;29;20110;-91
2023/08/27 03:32:46;;;;;;;1.92;1.73;;;;;;;14.50;100.00;100022.16;5937090;29;20605;-92
2023/08/27 03:35:54;;;;;;;2.75;1.80;;;;;;;14.49;100.00;100030.16;5950023;29;20131;-92
2023/08/27 03:38:57;;;;;;;3.25;1.65;;;;;;;14.51;100.00;100028.19;5961271;29;20422;-91
2023/08/27 03:41:59;;;;;;;2.78;1.90;;;;;;;14.54;100.00;100013.09;5959473;29;20070;-92
2023/08/27 03:45:01;;;;;;;4.70;1.85;;;;;;;14.59;100.00;100028.25;5958001;29;20101;-92
2023/08/27 03:48:04;;;;;;;3.17;2.00;;;;;;;14.64;100.00;100018.97;5931812;29;20422;-92
2023/08/27 03:51:06;;;;;;;2.00;1.80;;;;;;;14.68;100.00;100009.03;5959901;29;20137;-92
2023/08/27 03:54:08;;;;;;;4.35;2.08;;;;;;;14.70;100.00;100009.69;5960238;29;20180;-92
2023/08/27 03:57:11;;;;;;;1.73;1.60;;;;;;;14.72;100.00;100005.16;5955437;29;20142;-92
2023/08/27 04:00:14;;;;;;;2.80;2.00;;;;;;;14.76;100.00;100005.66;5947720;29;20656;-92
2023/08/27 04:03:21;;;;;;;2.78;1.95;;;;;;;14.78;100.00;100020.16;5961592;29;20056;-92
2023/08/27 04:06:24;;;;;;;2.38;1.65;;;;;;;14.80;100.00;100022.56;5956041;29;20051;-91
2023/08/27 04:09:26;;;;;;;3.33;1.77;;;;;;;14.82;100.00;100020.63;5960397;29;20047;-92
2023/08/27 04:12:28;;;;;;;2.25;1.80;;;;;;;14.83;100.00;100024.84;5938932;29;20089;-92
2023/08/27 04:15:30;;;;;;;3.47;1.90;;;;;;;14.81;100.00;100038.06;5972556;29;20047;-92
2023/08/27 04:18:33;;;;;;;3.45;1.92;;;;;;;14.80;100.00;100044.22;5960533;29;20047;-92
2023/08/27 04:21:35;;;;;;;4.32;2.17;;;;;;;14.83;100.00;100043.09;5960238;29;20035;-93
2023/08/27 04:24:37;;;;;;;3.75;2.00;;;;;;;14.83;100.00;100054.34;5961878;29;20078;-92
2023/08/27 04:27:43;;;;;;;3.30;1.80;;;;;;;14.85;100.00;100031.53;5960766;29;20130;-93
2023/08/27 04:30:50;;;;;;;2.70;2.05;;;;;;;14.86;100.00;100038.38;5960347;29;20062;-92
2023/08/27 04:33:52;;;;;;;2.03;1.83;;;;;;;14.82;100.00;100044.09;5961442;29;20165;-92
2023/08/27 04:36:56;;;;;;;2.08;1.88;;;;;;;14.80;100.00;100035.59;5952258;29;20046;-92
2023/08/27 04:39:57;;;;;;;3.17;1.80;;;;;;;14.78;100.00;100037.53;5948993;29;20066;-93
2023/08/27 04:42:59;;;;;;;3.35;1.98;;;;;;;14.79;100.00;100036.59;5964344;29;20566;-92
2023/08/27 04:46:02;;;;;;;2.75;1.98;;;;;;;14.82;100.00;100031.84;5966362;29;20533;-93
2023/08/27 04:49:04;;;;;;;2.15;1.70;;;;;;;14.88;100.00;100040.00;5975730;29;20054;-92
2023/08/27 04:52:06;;;;;;;2.28;1.77;;;;;;;14.93;100.00;100037.72;5965568;29;20054;-92
2023/08/27 04:55:28;;;;;;;3.50;1.80;;;;;;;14.96;100.00;100058.28;5960093;29;20421;-92
2023/08/27 04:58:30;;;;;;;3.42;2.08;;;;;;;14.98;100.00;100040.66;5967951;29;20458;-91
2023/08/27 05:01:32;;;;;;;3.45;2.00;;;;;;;14.98;100.00;100036.28;5946914;29;20073;-92
2023/08/27 05:04:35;;;;;;;2.65;2.20;;;;;;;15.00;100.00;100033.50;5960603;29;20059;-91
2023/08/27 05:07:37;;;;;;;2.05;1.63;;;;;;;15.03;100.00;100033.19;5960088;29;20521;-92
2023/08/27 05:10:40;;;;;;;2.97;2.00;;;;;;;15.04;100.00;100030.41;5969512;29;20054;-92
2023/08/27 05:13:43;;;;;;;3.72;2.13;;;;;;;15.07;100.00;100034.50;5966260;29;20374;-92
2023/08/27 05:16:45;;;;;;;2.95;1.77;;;;;;;15.08;100.00;100026.53;5960617;29;20119;-92
2023/08/27 05:19:47;;;;;;;4.95;2.10;;;;;;;15.10;100.00;100018.50;5942326;29;20137;-92
2023/08/27 05:22:49;;;;;;;3.15;2.10;;;;;;;15.12;100.00;100010.53;5947349;29;20099;-92
2023/08/27 05:25:51;;;;;;;3.58;2.00;;;;;;;15.14;100.00;100009.41;5958059;29;20525;-92
2023/08/27 05:28:55;;;;;;;3.33;2.03;;;;;;;15.20;100.00;100002.72;5960793;29;20047;-92
2023/08/27 05:31:57;;;;;;;2.35;2.10;;;;;;;15.25;100.00;100001.25;5958458;29;20478;-92
2023/08/27 05:35:00;;;;;;;2.15;1.83;;;;;;;15.32;100.00;100005.81;5945808;29;20162;-92
2023/08/27 05:38:02;;;;;;;2.45;1.98;;;;;;;15.40;100.00;99992.75;5948055;29;20059;-92
2023/08/27 05:41:04;;;;;;;2.58;2.08;;;;;;;15.45;100.00;99995.66;5954554;29;20039;-92
2023/08/27 05:44:06;;;;;;;2.88;1.83;;;;;;;15.51;100.00;99995.03;5973089;29;20141;-92
2023/08/27 05:47:08;;;;;;;2.88;1.50;;;;;;;15.56;100.00;99990.13;5950903;29;20596;-92
2023/08/27 05:50:10;;;;;;;2.63;1.90;;;;;;;15.62;100.00;99999.88;5954429;29;20050;-92
2023/08/27 05:53:14;;;;;;;2.65;2.00;;;;;;;15.75;100.00;99991.56;5947932;29;20085;-92
2023/08/27 05:56:16;;;;;;;3.10;1.95;;;;;;;15.81;100.00;99988.28;5959115;29;20043;-92
2023/08/27 05:59:17;;;;;;;2.40;2.20;;;;;;;15.89;100.00;99990.03;5958193;29;20059;-92
2023/08/27 06:02:20;;;;;;;2.25;1.98;;;;;;;15.98;100.00;99985.63;5957425;29;20043;-92
2023/08/27 06:05:24;;;;;;;2.78;1.95;;;;;;;16.05;100.00;99982.16;5957614;29;20092;-92
2023/08/27 06:08:27;;;;;;;4.47;2.03;;;;;;;16.10;100.00;99984.25;5957531;29;20502;-92
2023/08/27 06:11:29;;;;;;;3.70;1.98;;;;;;;16.13;100.00;99982.13;5959300;29;20543;-92
2023/08/27 06:14:32;;;;;;;3.38;2.03;;;;;;;16.12;100.00;99992.72;5959806;29;20502;-92
2023/08/27 06:17:33;;;;;;;1.88;1.77;;;;;;;16.13;100.00;99999.59;5935388;29;20047;-92
2023/08/27 06:20:36;;;;;;;3.72;2.25;;;;;;;16.15;100.00;99993.22;5939914;29;20097;-92
2023/08/27 06:23:38;;;;;;;3.00;2.20;;;;;;;16.23;100.00;99996.75;5955200;29;20633;-92
2023/08/27 06:26:41;;;;;;;5.63;2.22;;;;;;;16.36;100.00;99983.94;5954473;29;20082;-92
2023/08/27 06:29:44;;;;;;;4.10;2.45;;;;;;;16.53;100.00;99984.69;5946292;29;20555;-92
2023/08/27 06:32:48;;;;;;;2.55;1.98;;;;;;;16.66;100.00;99979.69;5937543;29;20071;-92
2023/08/27 06:35:50;;;;;;;3.60;2.05;;;;;;;16.70;100.00;99980.97;5952046;29;20061;-92
2023/08/27 06:38:52;;;;;;;2.95;1.73;;;;;;;16.59;100.00;99970.91;5963950;29;20550;-92
2023/08/27 06:41:54;;;;;;;2.25;1.80;;;;;;;16.41;100.00;99971.19;5961384;29;20047;-92
2023/08/27 06:44:56;;;;;;;2.55;2.10;;;;;;;16.25;100.00;99981.75;5949705;29;20123;-92
2023/08/27 06:47:58;;;;;;;3.28;2.00;;;;;;;16.08;100.00;99989.66;5959710;29;20517;-92
2023/08/27 06:51:01;;;;;;;4.45;2.00;;;;;;;15.98;100.00;99999.47;5956811;29;20074;-92
2023/08/27 06:54:04;;;;;;;4.85;2.08;;;;;;;15.93;100.00;99996.56;5941385;29;20047;-92
2023/08/27 06:57:06;;;;;;;2.70;2.42;;;;;;;15.99;100.00;99997.69;5960344;29;20046;-92
2023/08/27 07:00:15;;;;;;;2.25;2.03;;;;;;;16.14;100.00;99993.38;5961962;29;20047;-92
2023/08/27 07:03:16;;;;;;;3.22;1.95;;;;;;;16.24;100.00;99995.78;5961601;29;20061;-92
2023/08/27 07:06:20;;;;;;;2.40;2.10;;;;;;;16.26;100.00;100001.63;5965521;29;20050;-92
2023/08/27 07:09:27;;;;;;;4.45;2.30;;;;;;;16.20;100.00;99977.03;5963846;29;20436;-92
2023/08/27 07:12:29;;;;;;;2.58;2.03;;;;;;;16.22;100.00;99976.84;5946529;29;20184;-92
2023/08/27 07:15:32;;;;;;;2.47;1.88;;;;;;;16.45;100.00;99982.13;5966977;29;20050;-92
2023/08/27 07:18:33;;;;;;;3.83;2.10;;;;;;;16.78;100.00;99988.75;5949807;29;20102;-92
2023/08/27 07:21:36;;;;;;;3.63;2.25;;;;;;;17.09;100.00;99980.03;5969132;29;20058;-92
2023/08/27 07:24:37;;;;;;;5.70;2.00;;;;;;;17.37;100.00;99984.69;5959965;29;20054;-91
2023/08/27 07:27:39;;;;;;;3.17;1.90;;;;;;;17.67;100.00;99985.50;5958895;29;20055;-92
2023/08/27 07:30:41;;;;;;;2.25;1.92;;;;;;;17.90;100.00;99989.88;5975044;29;20134;-92
2023/08/27 07:33:44;;;;;;;3.65;2.10;;;;;;;17.97;100.00;99982.91;5961383;29;20059;-91
2023/08/27 07:36:45;;;;;;;3.83;2.30;;;;;;;18.02;100.00;99983.16;5968044;29;20083;-92
2023/08/27 07:39:49;;;;;;;2.35;1.90;;;;;;;18.07;100.00;99991.28;5956182;29;20043;-92
2023/08/27 07:42:51;;;;;;;2.90;2.00;;;;;;;18.24;100.00;99979.59;5960878;29;20057;-91
2023/08/27 07:45:53;;;;;;;3.60;1.88;;;;;;;18.54;100.00;99987.38;5955520;29;20050;-91
2023/08/27 07:48:54;;;;;;;2.80;2.13;;;;;;;18.80;100.00;99986.03;5967660;29;20474;-91
2023/08/27 07:51:56;;;;;;;2.58;2.10;;;;;;;18.96;100.00;99974.47;5959030;29;20070;-90
2023/08/27 07:54:58;;;;;;;4.55;2.10;;;;;;;19.09;100.00;99970.13;5953128;29;20046;-90
2023/08/27 07:58:00;;;;;;;3.42;1.80;;;;;;;19.15;100.00;99971.19;5939062;29;20051;-91
2023/08/27 08:01:04;;;;;;;3.30;2.03;;;;;;;19.29;100.00;99974.72;5972626;29;20154;-91
2023/08/27 08:04:10;;;;;;;2.65;2.22;;;;;;;19.45;100.00;99971.81;5949477;29;20501;-91
2023/08/27 08:07:11;;;;;;;3.40;2.30;;;;;;;19.56;100.00;99962.56;5950705;29;20046;-90
2023/08/27 08:10:14;;;;;;;10.05;2.35;;;;;;;19.62;100.00;99968.84;5948046;29;20039;-90
2023/08/27 08:13:15;;;;;;;3.03;2.30;;;;;;;19.80;100.00;99958.69;5953544;29;20178;-90
2023/08/27 08:16:17;;;;;;;2.72;2.00;;;;;;;19.97;100.00;99954.72;5962026;29;20058;-90
2023/08/27 08:19:20;;;;;;;2.90;1.80;;;;;;;20.16;100.00;99965.47;5971088;29;20059;-90
2023/08/27 08:22:21;;;;;;;4.65;2.20;;;;;;;20.45;100.00;99959.09;5961451;29;20601;-90
2023/08/27 08:25:24;;;;;;;2.28;1.70;;;;;;;20.68;100.00;99955.28;5966482;29;20126;-90
2023/08/27 08:28:26;;;;;;;2.60;1.80;;;;;;;20.84;100.00;99954.88;5964797;29;20047;-91
2023/08/27 08:31:28;;;;;;;3.92;1.92;;;;;;;20.97;100.00;99948.84;5956452;29;20367;-90
2023/08/27 08:34:30;;;;;;;3.17;2.00;;;;;;;20.99;100.00;99957.31;5960605;29;20548;-90
2023/08/27 08:37:32;;;;;;;2.33;2.00;;;;;;;21.05;100.00;99967.84;5960788;29;20039;-90
2023/08/27 08:40:42;;;;;;;7.72;1.88;;;;;;;20.96;100.00;99952.47;5960542;29;20054;-90
2023/08/27 08:43:48;;;;;;;2.30;2.00;;;;;;;20.77;100.00;99939.13;5964522;29;20058;-90
2023/08/27 08:46:51;;;;;;;2.47;1.90;;;;;;;20.63;100.00;99953.25;5957556;29;20047;-90
2023/08/27 08:49:57;;;;;;;2.50;2.20;;;;;;;20.70;100.00;99964.59;5955496;29;20051;-91
2023/08/27 08:53:01;;;;;;;3.15;2.00;;;;;;;21.12;100.00;99974.91;5957805;29;20066;-90
2023/08/27 08:56:07;;;;;;;2.78;1.90;;;;;;;21.65;100.00;99980.13;5958000;29;20043;-91
2023/08/27 08:59:10;;;;;;;3.20;1.60;;;;;;;21.97;100.00;99985.50;5959810;29;20131;-91
2023/08/27 09:02:13;;;;;;;3.20;1.45;;;;;;;22.09;100.00;99968.81;5956632;29;20164;-90
2023/08/27 09:05:16;;;;;;;2.20;1.38;;;;;;;22.09;100.00;99974.09;5956856;29;20050;-91
2023/08/27 09:08:19;;;;;;;1.77;1.38;;;;;;;22.17;100.00;99974.84;5954617;29;20050;-91
2023/08/27 09:11:21;;;;;;;2.80;1.50;;;;;;;22.28;100.00;99976.84;5957227;29;20051;-91
2023/08/27 09:14:25;;;;;;;2.10;1.60;;;;;;;22.39;100.00;99984.09;5951234;29;20099;-90
2023/08/27 09:17:27;;;;;;;3.60;1.80;;;;;;;22.33;100.00;99979.66;5954942;29;20733;-88
2023/08/27 09:20:31;;;;;;;2.05;1.50;;;;;;;22.19;100.00;99980.75;5966850;29;20515;-91
2023/08/27 09:23:37;;;;;;;2.75;1.70;;;;;;;22.22;100.00;99988.25;5945550;29;20251;-91
2023/08/27 09:26:40;;;;;;;2.40;1.40;;;;;;;22.32;100.00;99975.41;5965989;29;20039;-91
2023/08/27 09:29:42;;;;;;;2.58;1.30;;;;;;;22.49;100.00;99963.34;5960581;29;20042;-91
2023/08/27 09:32:50;;;;;;;1.75;1.13;;;;;;;22.54;100.00;99945.03;5960628;29;20055;-91
2023/08/27 09:35:52;;;;;;;2.80;1.27;;;;;;;22.69;100.00;99941.28;5949739;29;20219;-91
2023/08/27 09:38:56;;;;;;;2.85;1.35;;;;;;;22.85;100.00;99942.56;5952644;29;20410;-91
2023/08/27 09:41:58;;;;;;;1.10;1.10;;;;;;;22.86;100.00;99942.34;5962849;29;20144;-91
2023/08/27 09:45:00;;;;;;;1.65;1.10;;;;;;;23.00;100.00;99935.16;5958645;29;20121;-91
2023/08/27 09:48:03;;;;;;;2.63;1.45;;;;;;;23.32;100.00;99940.31;5956587;29;20053;-91
2023/08/27 09:51:07;;;;;;;2.25;1.13;;;;;;;23.62;100.00;99941.19;5954429;29;20557;-90
2023/08/27 09:54:25;;;;;;;2.83;1.30;;;;;;;23.84;100.00;99932.84;5946171;29;20503;-91
2023/08/27 09:57:29;;;;;;;1.35;1.00;;;;;;;23.93;100.00;99933.34;5945104;29;20047;-91
2023/08/27 10:00:33;;;;;;;1.10;1.00;;;;;;;24.04;100.00;99927.28;5952548;29;20550;-90
2023/08/27 10:03:35;;;;;;;1.20;1.10;;;;;;;24.06;100.00;99933.97;5954291;29;20039;-90
2023/08/27 10:06:37;;;;;;;1.48;1.25;;;;;;;23.89;100.00;99938.28;5943846;29;20054;-91
2023/08/27 10:09:39;;;;;;;0.90;0.90;;;;;;;23.82;100.00;99930.41;5955227;29;20454;-91
2023/08/27 10:12:41;;;;;;;1.00;0.80;;;;;;;23.88;100.00;99918.16;5953896;29;20058;-92
2023/08/27 10:15:45;;;;;;;1.45;0.73;;;;;;;23.94;100.00;99908.53;5935383;29;20055;-92
2023/08/27 10:18:47;;;;;;;2.83;0.90;;;;;;;23.99;100.00;99919.22;5953589;29;20500;-90
2023/08/27 10:21:50;;;;;;;2.20;1.30;;;;;;;24.06;100.00;99920.75;5962238;29;20324;-91
2023/08/27 10:24:52;;;;;;;1.10;1.00;;;;;;;24.15;100.00;99917.78;5949211;29;20463;-91
2023/08/27 10:27:55;;;;;;;1.70;0.88;;;;;;;23.82;100.00;99911.91;5949465;29;20085;-91
2023/08/27 10:30:57;;;;;;;1.35;0.80;;;;;;;23.56;100.00;99909.59;5952462;29;20485;-91
2023/08/27 10:34:00;;;;;;;2.70;1.10;;;;;;;22.76;100.00;99924.38;5945361;29;20058;-93
2023/08/27 10:37:10;;;;;;;3.22;1.13;;;;;;;21.59;100.00;99937.00;5955279;29;20051;-89
2023/08/27 10:40:15;;;;;;;3.00;1.42;;;;;;;20.55;100.00;99935.88;5945694;29;20196;-89
2023/08/27 10:43:18;;;;;;;14.88;2.05;;;;;;;19.49;100.00;99949.41;5962535;29;20306;-95
2023/08/27 10:46:24;;;;;;;3.67;1.75;;;;;;;18.45;100.00;99933.44;5952315;29;20050;-91
2023/08/27 10:49:36;;;;;;;2.00;1.70;;;;;;;18.34;100.00;99957.53;5949421;29;20156;-92
2023/08/27 10:52:58;;;;;;;2.30;1.40;;;;;;;18.47;100.00;99962.91;5946250;29;20041;-91
2023/08/27 10:55:59;;;;;;;2.25;1.60;;;;;;;18.57;100.00;99966.03;5950290;29;20058;-92
2023/08/27 10:59:15;;;;;;;2.45;1.67;;;;;;;18.71;100.00;99949.41;5951512;29;20051;-92
2023/08/27 11:02:17;;;;;;;3.72;1.40;;;;;;;18.89;100.00;99948.19;5953372;29;20280;-93
2023/08/27 11:05:29;;;;;;;2.17;1.08;;;;;;;19.07;100.00;99953.75;5951812;29;20237;-93
2023/08/27 11:08:40;;;;;;;2.10;1.30;;;;;;;19.23;100.00;99943.97;5954505;29;20107;-94
2023/08/27 11:11:50;;;;;;;2.78;1.30;;;;;;;19.54;100.00;99947.00;5953712;29;20517;-94
2023/08/27 11:14:55;;;;;;;1.27;1.10;;;;;;;19.93;100.00;99937.72;5953416;29;20368;-94
2023/08/27 11:18:00;;;;;;;2.78;1.48;;;;;;;20.29;100.00;99931.34;5946137;29;20478;-95
2023/08/27 11:21:20;;;;;;;2.10;1.10;;;;;;;20.67;100.00;99924.72;5950241;29;20051;-94
2023/08/27 11:24:26;;;;;;;1.00;0.90;;;;;;;20.99;100.00;99916.03;5954076;29;20458;-95
2023/08/27 11:27:33;;;;;;;2.42;1.20;;;;;;;21.17;100.00;99923.28;5935973;29;20498;-95
2023/08/27 11:30:37;;;;;;;2.35;1.13;;;;;;;21.17;100.00;99923.28;5957818;29;20054;-95
2023/08/27 11:33:41;;;;;;;2.40;1.10;;;;;;;20.98;100.00;99921.50;5973803;29;20051;-96
2023/08/27 11:36:54;;;;;;;1.27;1.05;;;;;;;20.68;100.00;99911.38;5974844;29;20039;-96
2023/08/27 11:40:01;;;;;;;1.67;1.13;;;;;;;20.43;100.00;99913.78;5976175;29;20043;-96
2023/08/27 11:43:30;;;;;;;1.13;1.00;;;;;;;20.16;100.00;99902.41;5957155;29;20055;-96
2023/08/27 11:47:02;;;;;;;2.45;0.93;;;;;;;20.06;100.00;99900.16;5983284;29;20047;-96
2023/08/27 11:50:26;;;;;;;3.47;1.00;;;;;;;19.98;100.00;99898.53;5969568;29;20106;-96
2023/08/27 11:53:29;;;;;;;1.45;0.80;;;;;;;19.90;100.00;99906.59;5964501;29;20506;-96
2023/08/27 11:56:34;;;;;;;1.30;0.82;;;;;;;19.71;100.00;99910.75;5963662;29;20135;-96
2023/08/27 11:59:40;;;;;;;0.80;0.80;;;;;;;19.55;100.00;99919.75;5957295;29;20317;-96
2023/08/27 12:02:43;;;;;;;1.35;0.85;;;;;;;19.35;100.00;99921.44;5952814;29;20890;-96
2023/08/27 12:05:45;;;;;;;2.70;0.98;;;;;;;19.23;100.00;99921.19;5946155;29;20490;-96
2023/08/27 12:08:49;;;;;;;0.95;0.90;;;;;;;19.13;100.00;99920.72;5953022;29;20107;-96
2023/08/27 12:11:52;;;;;;;2.50;1.20;;;;;;;19.09;100.00;99912.41;5955979;29;20505;-96
2023/08/27 12:14:59;;;;;;;1.60;1.00;;;;;;;19.12;100.00;99922.50;5967763;29;20047;-96
2023/08/27 12:18:06;;;;;;;1.55;0.88;;;;;;;19.24;100.00;99914.94;5950434;29;20035;-96
2023/08/27 12:21:08;;;;;;;1.17;0.85;;;;;;;19.50;100.00;99934.44;5947325;29;20089;-95
2023/08/27 12:24:35;;;;;;;0.80;0.80;;;;;;;19.75;100.00;99930.38;5950391;29;20047;-95
2023/08/27 12:27:37;;;;;;;0.80;0.80;;;;;;;19.90;100.00;99932.03;5941301;29;20076;-96
2023/08/27 12:31:02;;;;;;;3.15;1.00;;;;;;;20.01;100.00;99928.84;5951197;29;20046;-95
2023/08/27 12:34:04;;;;;;;1.33;1.08;;;;;;;20.27;100.00;99922.84;5957741;29;20050;-96
2023/08/27 12:37:07;;;;;;;1.17;1.00;;;;;;;20.54;100.00;99918.41;5962483;29;20039;-95
2023/08/27 12:40:11;;;;;;;1.30;1.00;;;;;;;20.58;100.00;99921.50;5948254;29;20127;-95
2023/08/27 12:43:13;;;;;;;0.90;0.90;;;;;;;20.67;100.00;99920.31;5951386;29;20051;-94
2023/08/27 12:46:17;;;;;;;0.93;0.70;;;;;;;20.74;100.00;99917.66;5963351;29;20134;-94
2023/08/27 12:49:19;;;;;;;1.15;0.80;;;;;;;20.79;100.00;99909.97;5948685;29;20388;-94
2023/08/27 12:52:22;;;;;;;0.82;0.70;;;;;;;21.01;100.00;99898.19;5938966;29;20046;-94
2023/08/27 12:55:26;;;;;;;1.67;0.80;;;;;;;21.36;100.00;99886.59;5953798;29;20058;-94
2023/08/27 12:58:29;;;;;;;1.10;1.00;;;;;;;21.71;100.00;99881.81;5964045;29;20047;-95
2023/08/27 13:01:31;;;;;;;1.40;0.90;;;;;;;21.71;100.00;99882.66;5953833;29;20377;-95
2023/08/27 13:04:35;;;;;;;0.80;0.80;;;;;;;21.47;100.00;99894.69;5953024;29;20058;-95
2023/08/27 13:07:38;;;;;;;1.30;1.15;;;;;;;21.25;100.00;99891.47;5953241;29;20067;-94
2023/08/27 13:10:41;;;;;;;2.33;1.00;;;;;;;21.14;100.00;99881.59;5951010;29;20047;-94
2023/08/27 13:13:55;;;;;;;2.60;0.80;;;;;;;21.35;100.00;99887.63;5964979;29;20057;-94
2023/08/27 13:17:05;;;;;;;0.98;0.80;;;;;;;21.52;100.00;99888.00;5954207;29;20043;-94
2023/08/27 13:20:08;;;;;;;1.40;1.00;;;;;;;21.67;100.00;99884.06;5950522;29;20047;-93
2023/08/27 13:23:11;;;;;;;2.17;0.85;;;;;;;21.57;100.00;99869.75;5952211;29;20517;-93
2023/08/27 13:26:14;;;;;;;1.38;0.90;;;;;;;21.50;100.00;99880.28;5944179;29;20131;-93
2023/08/27 13:29:16;;;;;;;2.70;0.90;;;;;;;21.60;100.00;99870.13;5954054;29;20537;-94
2023/08/27 13:32:20;;;;;;;1.08;0.90;;;;;;;21.87;100.00;99870.78;5960042;29;20046;-94
2023/08/27 13:35:22;;;;;;;1.10;1.00;;;;;;;22.09;100.00;99878.38;5952302;29;20324;-94
2023/08/27 13:38:25;;;;;;;2.08;1.02;;;;;;;22.21;100.00;99876.72;5960377;29;20043;-93
2023/08/27 13:41:27;;;;;;;2.60;0.88;;;;;;;22.30;100.00;99875.41;5954811;29;20050;-93
2023/08/27 13:44:30;;;;;;;4.85;1.27;;;;;;;22.42;100.00;99867.63;5964769;29;20502;-92
2023/08/27 13:47:32;;;;;;;0.90;0.90;;;;;;;22.66;100.00;99862.53;5950523;29;20050;-92
2023/08/27 13:50:34;;;;;;;1.13;0.98;;;;;;;22.83;100.00;99863.63;5954479;29;20051;-93
2023/08/27 13:53:36;;;;;;;0.98;0.88;;;;;;;22.77;100.00;99860.00;5952099;29;20046;-94
2023/08/27 13:56:39;;;;;;;1.95;1.13;;;;;;;22.68;100.00;99850.78;5959178;29;20088;-93
2023/08/27 13:59:41;;;;;;;1.27;0.90;;;;;;;22.60;100.00;99853.66;5954094;29;20503;-93
2023/08/27 14:02:43;;;;;;;1.30;1.00;;;;;;;22.58;100.00;99848.63;5942249;29;20075;-93
2023/08/27 14:05:46;;;;;;;1.38;0.90;;;;;;;22.49;100.00;99849.91;5934827;29;20135;-92
2023/08/27 14:08:48;;;;;;;1.70;0.98;;;;;;;22.45;100.00;99850.56;5947066;29;20505;-94
2023/08/27 14:11:50;;;;;;;1.65;1.23;;;;;;;22.62;100.00;99864.00;5953346;29;20046;-93